Time;durP1;ratioP1;P1;durP2;ratioP2;P2;SDS_P1;SDS_P2;PMS_P1;PMS_P2;Temp;Humidity;BMP_temperature;BMP_pressure;BME280_temperature;BME280_humidity;BME280_pressure;Samples;Min_cycle;Max_cycle;Signal;HPM_P1;HPM_P2
2022/08/02 00:02:50;;;;;;;3.03;2.73;;;;;;;26.57;36.73;94901.59;6101918;28;104468;-58
2022/08/02 00:05:54;;;;;;;4.37;3.00;;;;;;;26.65;37.25;94900.72;6109265;28;104004;-57
2022/08/02 00:08:57;;;;;;;3.70;3.40;;;;;;;26.72;36.86;94898.25;6110754;28;103718;-57
2022/08/02 00:12:01;;;;;;;3.37;3.07;;;;;;;26.87;36.17;94904.81;6103943;28;105168;-58
2022/08/02 00:15:05;;;;;;;3.70;2.87;;;;;;;27.01;35.90;94907.91;6105233;28;103799;-58
2022/08/02 00:18:08;;;;;;;4.67;2.93;;;;;;;27.04;36.14;94903.75;6109476;28;103917;-57
2022/08/02 00:21:13;;;;;;;3.00;2.80;;;;;;;27.02;36.13;94906.00;6111014;28;103832;-58
2022/08/02 00:24:17;;;;;;;2.73;2.53;;;;;;;27.09;35.43;94901.63;6100531;28;103660;-57
2022/08/02 00:27:32;;;;;;;3.07;2.87;;;;;;;27.11;35.62;94904.75;6108460;28;103706;-57
2022/08/02 00:30:35;;;;;;;4.20;3.90;;;;;;;27.21;35.87;94898.09;6108396;28;104018;-60
2022/08/02 00:33:38;;;;;;;5.30;3.57;;;;;;;27.29;35.49;94899.88;6110722;28;103932;-57
2022/08/02 00:37:03;;;;;;;4.17;3.23;;;;;;;27.29;35.14;94905.25;6097811;28;103389;-56
2022/08/02 00:40:07;;;;;;;3.50;3.30;;;;;;;27.28;35.04;94903.69;6108954;28;104001;-57
2022/08/02 00:43:11;;;;;;;3.40;3.10;;;;;;;27.22;35.29;94901.56;6110780;28;105010;-58
2022/08/02 00:46:15;;;;;;;3.90;3.60;;;;;;;27.16;35.34;94899.13;6102092;28;103839;-61
2022/08/02 00:49:18;;;;;;;3.13;2.90;;;;;;;26.69;35.99;94898.91;6107441;28;103839;-56
2022/08/02 00:52:24;;;;;;;3.20;2.10;;;;;;;26.62;36.01;94893.31;6095474;28;105578;-59
2022/08/02 00:55:29;;;;;;;3.10;2.80;;;;;;;26.60;36.12;94900.94;6108562;28;103474;-57
2022/08/02 00:58:33;;;;;;;3.00;2.80;;;;;;;26.39;36.03;94881.50;6099748;28;105111;-58
2022/08/02 01:01:40;;;;;;;4.17;3.77;;;;;;;26.52;36.40;94899.13;6110246;28;104985;-59
2022/08/02 01:04:59;;;;;;;3.63;3.33;;;;;;;26.49;36.53;94883.72;6108187;28;103649;-57
2022/08/02 01:08:04;;;;;;;3.63;3.33;;;;;;;26.49;36.79;94897.13;6107779;28;104670;-57
2022/08/02 01:11:08;;;;;;;3.67;3.40;;;;;;;26.54;37.15;94891.53;6097643;28;104463;-58
2022/08/02 01:14:13;;;;;;;3.77;3.57;;;;;;;26.53;37.19;94896.09;6109786;28;103773;-58
2022/08/02 01:17:23;;;;;;;4.83;3.90;;;;;;;26.72;37.16;94897.47;6102781;28;103684;-57
2022/08/02 01:21:06;;;;;;;4.97;4.57;;;;;;;26.76;37.48;94893.78;6098322;28;104719;-57
2022/08/02 01:24:21;;;;;;;6.20;3.40;;;;;;;26.87;37.49;94889.47;6087006;28;104427;-57
2022/08/02 01:27:36;;;;;;;4.17;3.87;;;;;;;26.90;36.78;94903.38;6107847;28;103494;-57
2022/08/02 01:30:43;;;;;;;4.37;4.00;;;;;;;26.86;37.59;94903.25;6105384;28;103243;-56
2022/08/02 01:33:56;;;;;;;4.90;3.53;;;;;;;26.74;37.57;94906.75;6103428;28;103782;-57
2022/08/02 01:37:07;;;;;;;4.17;3.80;;;;;;;26.74;37.47;94901.38;6112969;28;103892;-56
2022/08/02 01:40:13;;;;;;;4.30;3.83;;;;;;;26.65;37.49;94902.63;6112254;28;103791;-57
2022/08/02 01:43:19;;;;;;;5.40;3.70;;;;;;;26.36;38.01;94896.34;6105572;28;105157;-61
2022/08/02 01:46:25;;;;;;;4.07;3.67;;;;;;;26.25;37.88;94892.56;6113031;28;103903;-61
2022/08/02 01:49:30;;;;;;;4.00;3.77;;;;;;;25.96;38.62;94901.56;6113535;28;104977;-60
2022/08/02 01:52:37;;;;;;;19.50;17.80;;;;;;;25.59;39.13;94896.16;6112691;28;104731;-61
2022/08/02 01:55:44;;;;;;;9.20;8.40;;;;;;;25.53;39.31;94891.31;6102767;28;104982;-59
2022/08/02 01:59:02;;;;;;;8.20;7.50;;;;;;;25.41;39.05;94884.06;6098175;28;104432;-60
2022/08/02 02:02:08;;;;;;;4.03;3.70;;;;;;;25.28;39.67;94903.84;6112454;28;104780;-59
2022/08/02 02:05:14;;;;;;;5.03;4.53;;;;;;;25.40;38.93;94906.59;6107367;28;104923;-59
2022/08/02 02:08:22;;;;;;;7.37;6.77;;;;;;;25.60;39.24;94899.63;6107126;28;103240;-60
2022/08/02 02:11:29;;;;;;;6.80;6.20;;;;;;;25.80;38.70;94895.31;6100135;28;104737;-59
2022/08/02 02:14:54;;;;;;;6.70;6.03;;;;;;;25.90;38.39;94895.66;6113965;28;106328;-59
2022/08/02 02:18:01;;;;;;;6.40;5.73;;;;;;;26.16;37.95;94905.31;6103833;28;103997;-59
2022/08/02 02:21:16;;;;;;;5.43;5.00;;;;;;;26.17;38.20;94898.81;6111092;28;103992;-59
2022/08/02 02:24:19;;;;;;;4.83;4.47;;;;;;;26.22;38.10;94906.66;6111237;28;105281;-60
2022/08/02 02:27:25;;;;;;;5.03;4.60;;;;;;;26.25;38.08;94896.03;6112287;28;104717;-59
2022/08/02 02:30:30;;;;;;;4.33;3.93;;;;;;;26.36;37.97;94908.97;6100688;28;104136;-59
2022/08/02 02:33:40;;;;;;;4.30;3.87;;;;;;;26.28;37.80;94900.72;6112218;28;103706;-59
2022/08/02 02:36:48;;;;;;;4.60;3.47;;;;;;;26.10;38.08;94906.66;6111605;28;104764;-59
2022/08/02 02:39:54;;;;;;;3.20;2.93;;;;;;;25.90;37.78;94895.66;6100309;28;105556;-60
2022/08/02 02:43:00;;;;;;;3.10;2.90;;;;;;;25.73;37.96;94890.50;6111613;28;105050;-59
2022/08/02 02:46:06;;;;;;;2.60;2.40;;;;;;;25.68;38.16;94907.56;6108704;28;105416;-59
2022/08/02 02:49:13;;;;;;;3.87;3.50;;;;;;;25.65;37.93;94902.09;6111189;28;103435;-60
2022/08/02 02:52:19;;;;;;;3.30;3.00;;;;;;;25.62;37.94;94900.84;6101866;28;105055;-60
2022/08/02 02:55:24;;;;;;;4.70;4.30;;;;;;;25.64;38.02;94901.31;6109811;28;104477;-60
2022/08/02 02:58:28;;;;;;;5.93;5.43;;;;;;;25.69;38.15;94895.72;6107309;28;104236;-59
2022/08/02 03:01:32;;;;;;;4.27;3.80;;;;;;;25.74;37.83;94896.63;6108743;28;103858;-60
2022/08/02 03:05:00;;;;;;;5.47;3.80;;;;;;;25.74;38.09;94902.00;6096428;28;103420;-57
2022/08/02 03:08:03;;;;;;;3.30;3.00;;;;;;;26.00;37.45;94902.50;6104746;28;103884;-58
2022/08/02 03:11:08;;;;;;;3.67;2.80;;;;;;;26.01;37.15;94900.59;6110530;28;103542;-59
2022/08/02 03:14:13;;;;;;;7.60;3.10;;;;;;;26.26;37.34;94902.19;6103244;28;103306;-61
2022/08/02 03:17:16;;;;;;;4.33;3.63;;;;;;;26.43;37.10;94907.31;6111210;28;103689;-61
2022/08/02 03:20:21;;;;;;;5.77;2.77;;;;;;;26.53;36.75;94906.06;6110108;28;104412;-61
2022/08/02 03:23:24;;;;;;;3.53;3.23;;;;;;;26.60;36.12;94906.28;6111407;28;104797;-60
2022/08/02 03:26:27;;;;;;;4.17;3.10;;;;;;;26.59;35.89;94904.72;6107236;28;104877;-60
2022/08/02 03:29:30;;;;;;;3.03;2.80;;;;;;;26.53;36.79;94906.84;6108375;28;104713;-60
2022/08/02 03:32:38;;;;;;;15.13;3.23;;;;;;;26.31;36.28;94903.84;6110571;28;103626;-61
2022/08/02 03:35:43;;;;;;;4.53;3.23;;;;;;;26.35;36.41;94902.84;6109490;28;103708;-58
2022/08/02 03:38:47;;;;;;;14.80;4.93;;;;;;;26.40;36.46;94901.84;6098262;28;103764;-61
2022/08/02 03:41:51;;;;;;;7.60;6.80;;;;;;;26.40;36.53;94901.84;6108997;28;103656;-61
2022/08/02 03:44:56;;;;;;;7.10;5.20;;;;;;;26.30;36.64;94892.34;6109502;28;103744;-59
2022/08/02 03:47:59;;;;;;;18.43;5.00;;;;;;;26.30;36.88;94913.81;6098586;28;104088;-59
2022/08/02 03:51:05;;;;;;;9.40;4.07;;;;;;;26.23;36.79;94903.66;6107919;28;104856;-61
2022/08/02 03:54:08;;;;;;;11.80;4.03;;;;;;;26.34;37.46;94914.69;6110071;28;103751;-60
2022/08/02 03:57:12;;;;;;;37.97;4.60;;;;;;;26.35;37.39;94916.25;6108139;28;103779;-59
2022/08/02 04:00:19;;;;;;;27.43;4.20;;;;;;;26.61;37.04;94918.59;6100760;28;105100;-59
2022/08/02 04:03:22;;;;;;;18.00;5.07;;;;;;;26.71;36.70;94928.09;6110741;28;103798;-59
2022/08/02 04:06:26;;;;;;;11.10;4.67;;;;;;;26.71;36.73;94931.56;6110071;28;104991;-58
2022/08/02 04:09:30;;;;;;;9.37;3.90;;;;;;;26.69;36.04;94933.03;6100996;28;103821;-58
2022/08/02 04:12:33;;;;;;;11.00;3.97;;;;;;;26.67;36.64;94922.63;6091718;28;103982;-57
2022/08/02 04:15:38;;;;;;;7.67;3.67;;;;;;;26.84;36.28;94943.84;6113312;28;103948;-58
2022/08/02 04:18:45;;;;;;;11.60;3.87;;;;;;;26.94;36.06;94939.16;6127506;28;103796;-57
2022/08/02 04:21:53;;;;;;;9.70;4.30;;;;;;;26.92;36.51;94949.47;6100825;28;104216;-56
2022/08/02 04:24:59;;;;;;;11.00;4.27;;;;;;;26.78;36.58;94950.59;6111793;28;104138;-56
2022/08/02 04:28:03;;;;;;;8.43;3.23;;;;;;;26.71;36.69;94945.00;6108557;28;103650;-56
2022/08/02 04:31:21;;;;;;;4.53;3.43;;;;;;;26.45;36.32;94936.50;6108787;28;103797;-56
2022/08/02 04:34:24;;;;;;;3.67;2.90;;;;;;;26.46;36.45;94946.91;6098429;28;104268;-55
2022/08/02 04:37:30;;;;;;;6.07;3.03;;;;;;;26.34;36.54;94952.25;6108334;28;104414;-55
2022/08/02 04:40:33;;;;;;;9.23;4.07;;;;;;;26.27;36.66;94947.47;6101453;28;104903;-58
2022/08/02 04:43:36;;;;;;;5.60;3.30;;;;;;;26.31;36.71;94947.56;6098295;28;104089;-56
2022/08/02 04:46:39;;;;;;;28.23;4.77;;;;;;;26.32;37.49;94945.66;6099852;28;104666;-57
2022/08/02 04:49:42;;;;;;;2.77;2.47;;;;;;;25.93;37.10;94921.03;6101174;28;103736;-57
2022/08/02 04:52:47;;;;;;;5.20;2.77;;;;;;;26.23;36.81;94940.41;6088256;28;105036;-55
2022/08/02 04:55:50;;;;;;;7.73;3.70;;;;;;;26.18;37.36;94903.84;6080658;28;103835;-58
2022/08/02 04:58:53;;;;;;;7.40;3.27;;;;;;;26.50;37.35;94944.31;6084804;28;104954;-56
2022/08/02 05:01:56;;;;;;;6.57;3.20;;;;;;;26.40;37.56;94940.19;6087548;28;104239;-56
2022/08/02 05:04:59;;;;;;;6.67;3.00;;;;;;;26.35;37.01;94951.13;6087856;28;103953;-56
2022/08/02 05:08:04;;;;;;;10.87;3.17;;;;;;;26.52;36.69;94958.19;6075802;28;103127;-56
2022/08/02 05:11:07;;;;;;;37.67;5.77;;;;;;;26.77;38.03;94950.94;6087670;28;103658;-60
2022/08/02 05:14:10;;;;;;;10.77;4.00;;;;;;;26.50;37.35;94904.84;6087551;28;104895;-59
2022/08/02 05:17:13;;;;;;;10.67;4.00;;;;;;;26.87;36.84;94955.81;6087886;28;103119;-59
2022/08/02 05:20:19;;;;;;;14.97;4.80;;;;;;;26.72;37.03;94953.84;6077553;28;103974;-59
2022/08/02 05:23:23;;;;;;;11.93;4.20;;;;;;;26.71;37.18;94955.72;6087871;28;103727;-59
2022/08/02 05:26:26;;;;;;;5.63;4.47;;;;;;;26.60;37.11;94959.97;6087159;28;104769;-60
2022/08/02 05:29:30;;;;;;;7.63;3.73;;;;;;;26.47;37.35;94964.56;6081806;28;104178;-59
2022/08/02 05:32:33;;;;;;;7.20;3.90;;;;;;;26.35;37.97;94948.44;6082430;28;104392;-59
2022/08/02 05:35:36;;;;;;;7.27;4.20;;;;;;;26.38;38.03;94971.97;6086707;28;103975;-59
2022/08/02 05:38:40;;;;;;;9.07;4.67;;;;;;;26.20;38.12;94952.56;6087194;28;103720;-59
2022/08/02 05:41:43;;;;;;;9.60;5.23;;;;;;;26.32;38.41;94972.50;6076375;28;103778;-57
2022/08/02 05:44:47;;;;;;;9.00;5.67;;;;;;;26.24;38.33;94980.31;6087053;28;104572;-59
2022/08/02 05:47:50;;;;;;;6.50;5.63;;;;;;;26.26;38.66;94975.41;6087280;28;104503;-58
2022/08/02 05:50:58;;;;;;;15.90;5.17;;;;;;;26.45;38.47;94976.75;6087226;28;104015;-58
2022/08/02 05:54:12;;;;;;;11.47;4.80;;;;;;;26.65;37.99;94975.09;6076471;28;104882;-60
2022/08/02 05:57:23;;;;;;;7.23;5.70;;;;;;;26.82;37.76;94975.63;6087273;28;104657;-57
2022/08/02 06:00:31;;;;;;;8.50;4.77;;;;;;;26.96;37.97;94975.28;6086398;28;104036;-58
2022/08/02 06:03:39;;;;;;;5.20;4.17;;;;;;;27.06;37.76;94982.13;6081704;28;103852;-58
2022/08/02 06:06:44;;;;;;;6.47;4.63;;;;;;;27.08;37.42;94982.56;6082309;28;104760;-57
2022/08/02 06:09:50;;;;;;;6.93;4.77;;;;;;;27.21;37.94;94984.06;6087283;28;104889;-55
2022/08/02 06:13:01;;;;;;;8.73;4.53;;;;;;;27.28;37.58;94981.63;6086677;28;104949;-56
2022/08/02 06:16:06;;;;;;;7.73;5.40;;;;;;;27.16;37.19;94984.31;6076542;28;104994;-58
2022/08/02 06:19:19;;;;;;;10.20;4.80;;;;;;;27.02;37.92;94991.94;6088031;28;104749;-58
2022/08/02 06:22:26;;;;;;;8.90;5.13;;;;;;;27.00;37.93;94980.75;6091041;28;104658;-57
2022/08/02 06:25:46;;;;;;;5.70;4.40;;;;;;;26.95;37.77;94986.38;6090172;28;103682;-58
2022/08/02 06:28:54;;;;;;;10.67;5.10;;;;;;;26.90;37.44;94989.31;6080818;28;105070;-57
2022/08/02 06:31:58;;;;;;;5.60;4.93;;;;;;;26.86;37.34;94989.94;6089649;28;103724;-58
2022/08/02 06:35:02;;;;;;;6.73;4.90;;;;;;;26.67;37.78;94980.91;6089914;28;103806;-58
2022/08/02 06:38:07;;;;;;;7.50;4.63;;;;;;;26.71;38.13;94997.91;6082746;28;104904;-58
2022/08/02 06:41:15;;;;;;;90.83;11.63;;;;;;;26.74;37.27;94997.25;6089438;28;103922;-59
2022/08/02 06:44:18;;;;;;;8.30;4.40;;;;;;;26.78;37.37;95003.50;6090046;28;104188;-58
2022/08/02 06:47:41;;;;;;;7.10;3.70;;;;;;;26.85;36.41;94992.97;6090340;28;103312;-58
2022/08/02 06:50:45;;;;;;;5.43;3.90;;;;;;;26.94;36.95;94990.97;6080753;28;105025;-60
2022/08/02 06:53:49;;;;;;;5.80;3.63;;;;;;;27.02;36.04;94989.25;6090156;28;105055;-60
2022/08/02 06:56:54;;;;;;;5.23;3.27;;;;;;;26.98;35.46;94980.31;6089701;28;103522;-60
2022/08/02 07:00:00;;;;;;;3.63;3.00;;;;;;;26.93;35.34;94973.28;6086753;28;105067;-60
2022/08/02 07:03:04;;;;;;;3.27;2.97;;;;;;;27.09;34.96;94992.97;6083499;28;105605;-59
2022/08/02 07:06:08;;;;;;;3.20;3.00;;;;;;;27.11;35.06;94989.94;6089977;28;103914;-59
2022/08/02 07:09:12;;;;;;;3.30;2.97;;;;;;;27.04;35.49;94989.69;6089813;28;104401;-58
2022/08/02 07:12:25;;;;;;;3.87;2.47;;;;;;;26.78;35.50;94966.69;6079720;28;104999;-58
2022/08/02 07:15:28;;;;;;;3.33;2.73;;;;;;;26.87;35.57;94985.38;6089700;28;104887;-58
2022/08/02 07:18:31;;;;;;;3.30;3.00;;;;;;;26.83;35.39;94985.25;6089471;28;104774;-58
2022/08/02 07:21:34;;;;;;;4.03;3.00;;;;;;;26.82;34.87;94990.97;6089733;28;104798;-58
2022/08/02 07:24:59;;;;;;;3.47;2.40;;;;;;;26.71;35.07;94989.84;6077999;28;105681;-58
2022/08/02 07:28:04;;;;;;;4.67;2.60;;;;;;;26.67;35.57;94989.75;6089653;28;103301;-60
2022/08/02 07:31:07;;;;;;;2.93;2.43;;;;;;;26.71;35.26;94987.94;6088279;28;103728;-59
2022/08/02 07:34:10;;;;;;;3.00;2.53;;;;;;;26.72;34.99;94994.13;6083627;28;104511;-59
2022/08/02 07:37:13;;;;;;;3.00;2.80;;;;;;;26.75;35.38;94983.50;6083128;28;103650;-61
2022/08/02 07:40:37;;;;;;;2.67;2.47;;;;;;;26.88;34.94;94978.88;6088970;28;103391;-60
2022/08/02 07:43:43;;;;;;;3.60;2.20;;;;;;;27.01;35.31;94976.94;6089056;28;103791;-61
2022/08/02 07:46:46;;;;;;;4.10;2.73;;;;;;;26.98;34.48;94964.22;6079440;28;104533;-61
2022/08/02 07:49:49;;;;;;;3.30;3.00;;;;;;;27.09;35.07;94986.81;6088884;28;103945;-61
2022/08/02 07:52:52;;;;;;;2.70;2.50;;;;;;;27.25;34.95;94989.56;6089084;28;104067;-60
2022/08/02 07:55:59;;;;;;;2.70;2.50;;;;;;;27.26;34.77;94983.09;6095833;28;108245;-59
2022/08/02 07:59:04;;;;;;;3.00;2.60;;;;;;;27.31;34.43;94989.00;6127000;28;104788;-59
2022/08/02 08:02:08;;;;;;;4.60;2.60;;;;;;;27.31;34.85;94985.53;6136567;28;103784;-59
2022/08/02 08:05:12;;;;;;;5.10;2.40;;;;;;;27.20;34.61;94982.50;6135979;28;104140;-59
2022/08/02 08:08:15;;;;;;;3.30;2.67;;;;;;;27.07;34.47;94986.38;6132443;28;105042;-59
2022/08/02 08:11:19;;;;;;;2.90;2.07;;;;;;;26.98;34.81;94991.84;6131231;28;103744;-59
2022/08/02 08:14:24;;;;;;;3.30;2.10;;;;;;;26.98;34.95;94991.06;6136446;28;103919;-59
2022/08/02 08:17:27;;;;;;;2.77;2.03;;;;;;;26.86;34.91;94967.69;6135801;28;103742;-59
2022/08/02 08:20:30;;;;;;;3.30;3.00;;;;;;;26.87;35.29;94980.00;6126757;28;103832;-59
2022/08/02 08:23:34;;;;;;;9.10;3.00;;;;;;;26.80;35.07;94980.56;6136034;28;104371;-60
2022/08/02 08:26:38;;;;;;;13.97;3.20;;;;;;;26.79;35.30;94972.84;6135949;28;103860;-59
2022/08/02 08:29:44;;;;;;;13.37;2.80;;;;;;;26.97;35.47;94981.44;6126634;28;103817;-58
2022/08/02 08:32:47;;;;;;;9.60;3.37;;;;;;;27.22;35.60;94977.59;6101786;28;103998;-58
2022/08/02 08:35:51;;;;;;;16.37;3.73;;;;;;;27.51;35.12;94981.88;6111746;28;103667;-61
2022/08/02 08:38:54;;;;;;;34.43;21.70;;;;;;;27.68;34.80;94970.03;6111897;28;104909;-60
2022/08/02 08:41:57;;;;;;;41.70;32.57;;;;;;;27.83;35.04;94979.28;6112003;28;103336;-59
2022/08/02 08:45:02;;;;;;;81.97;67.10;;;;;;;27.91;34.84;94979.16;6100692;28;103759;-63
2022/08/02 08:48:11;;;;;;;61.20;53.90;;;;;;;27.94;34.43;94961.53;6111018;28;103886;-58
2022/08/02 08:51:18;;;;;;;53.93;48.30;;;;;;;28.08;34.31;94977.28;6111662;28;103946;-58
2022/08/02 08:54:24;;;;;;;46.20;41.53;;;;;;;28.13;34.30;94971.63;6100977;28;103810;-59
2022/08/02 08:57:30;;;;;;;41.00;36.87;;;;;;;28.02;34.86;94965.97;6111469;28;104902;-59
2022/08/02 09:00:36;;;;;;;40.30;30.30;;;;;;;27.89;34.66;94951.84;6111651;28;103579;-58
2022/08/02 09:03:39;;;;;;;35.20;27.70;;;;;;;27.98;35.14;94968.56;6110715;28;103805;-58
2022/08/02 09:06:42;;;;;;;33.33;25.60;;;;;;;27.94;35.06;94973.09;6099971;28;103661;-57
2022/08/02 09:09:45;;;;;;;32.23;22.07;;;;;;;27.96;35.31;94968.13;6111336;28;105152;-58
2022/08/02 09:13:07;;;;;;;28.57;21.60;;;;;;;27.99;35.14;94966.66;6111329;28;103925;-53
2022/08/02 09:16:34;;;;;;;25.20;21.27;;;;;;;27.92;35.57;94967.28;6106318;28;105855;-55
2022/08/02 09:19:37;;;;;;;22.17;19.87;;;;;;;27.97;35.97;94967.00;6106243;28;103687;-53
2022/08/02 09:23:06;;;;;;;31.60;19.93;;;;;;;28.16;36.15;94976.31;6111577;28;103690;-60
2022/08/02 09:26:11;;;;;;;27.10;19.50;;;;;;;28.33;36.46;94965.22;6111836;28;103898;-60
2022/08/02 09:29:15;;;;;;;21.13;16.97;;;;;;;28.49;36.58;94966.00;6100747;28;103845;-58
2022/08/02 09:32:20;;;;;;;29.83;16.50;;;;;;;28.73;36.82;94961.53;6110984;28;104834;-58
2022/08/02 09:35:36;;;;;;;21.53;15.30;;;;;;;28.91;36.32;94955.44;6111372;28;104804;-58
2022/08/02 09:39:02;;;;;;;16.10;14.30;;;;;;;28.92;36.17;94950.81;6105183;28;103360;-59
2022/08/02 09:42:09;;;;;;;14.17;12.67;;;;;;;29.16;36.14;94961.38;6105731;28;103622;-59
2022/08/02 09:45:13;;;;;;;14.40;12.23;;;;;;;29.23;35.92;94960.72;6110889;28;103665;-58
2022/08/02 09:48:17;;;;;;;19.10;13.10;;;;;;;29.01;33.39;94958.69;6110643;28;103705;-55
2022/08/02 09:51:23;;;;;;;14.40;10.00;;;;;;;28.89;35.99;94951.50;6101102;28;103757;-59
2022/08/02 09:54:28;;;;;;;17.50;10.60;;;;;;;28.88;35.92;94947.25;6111988;28;103935;-59
2022/08/02 09:57:36;;;;;;;11.47;9.77;;;;;;;28.73;35.79;94923.81;6114839;28;103817;-58
2022/08/02 10:00:53;;;;;;;23.17;18.47;;;;;;;28.72;35.61;94946.50;6114761;28;104864;-54
2022/08/02 10:04:00;;;;;;;34.93;24.43;;;;;;;28.65;35.86;94952.53;6104581;28;104061;-60
2022/08/02 10:07:03;;;;;;;49.00;42.10;;;;;;;28.59;36.41;94952.03;6114721;28;103346;-61
2022/08/02 10:10:07;;;;;;;44.77;38.63;;;;;;;28.53;36.53;94948.03;6113915;28;104276;-59
2022/08/02 10:13:11;;;;;;;43.60;35.93;;;;;;;28.46;37.15;94949.78;6110141;28;104268;-57
2022/08/02 10:16:24;;;;;;;41.70;33.53;;;;;;;28.39;37.34;94944.19;6108976;28;103904;-59
2022/08/02 10:19:29;;;;;;;31.70;28.40;;;;;;;28.40;36.93;94941.16;6114705;28;105074;-59
2022/08/02 10:22:53;;;;;;;27.70;24.93;;;;;;;28.50;36.90;94948.72;6114194;28;105686;-60
2022/08/02 10:25:57;;;;;;;31.00;25.37;;;;;;;28.51;37.47;94931.44;6103468;28;103891;-57
2022/08/02 10:29:02;;;;;;;28.00;24.00;;;;;;;28.63;36.93;94933.25;6114264;28;105113;-58
2022/08/02 10:32:09;;;;;;;26.37;22.00;;;;;;;28.67;36.58;94933.31;6114322;28;104713;-59
2022/08/02 10:35:18;;;;;;;23.93;21.67;;;;;;;28.76;36.88;94931.22;6114431;28;103705;-60
2022/08/02 10:38:28;;;;;;;14.33;12.50;;;;;;;28.96;35.96;94930.13;6102897;28;103386;-59
2022/08/02 10:41:42;;;;;;;7.43;6.73;;;;;;;29.01;35.79;94932.53;6113693;28;103751;-59
2022/08/02 10:44:45;;;;;;;5.20;4.70;;;;;;;29.05;35.40;94925.31;6113883;28;103787;-58
2022/08/02 10:48:02;;;;;;;6.80;5.93;;;;;;;28.98;35.67;94932.47;6103958;28;103835;-57
2022/08/02 10:51:07;;;;;;;8.30;7.60;;;;;;;28.90;35.75;94928.84;6113809;28;104673;-57
2022/08/02 10:54:10;;;;;;;13.10;10.57;;;;;;;28.81;35.84;94928.25;6113722;28;104517;-58
2022/08/02 10:57:18;;;;;;;51.90;47.10;;;;;;;28.66;36.60;94924.47;6113759;28;103714;-57
2022/08/02 11:00:27;;;;;;;43.83;39.63;;;;;;;28.14;35.72;94914.00;6103890;28;105394;-57
2022/08/02 11:03:35;;;;;;;21.07;19.10;;;;;;;28.15;36.61;94927.09;6114271;28;104869;-61
2022/08/02 11:07:15;;;;;;;7.53;6.70;;;;;;;28.22;35.32;94931.84;6112637;28;104697;-57
2022/08/02 11:10:36;;;;;;;12.77;7.63;;;;;;;28.27;36.09;94929.72;6107726;28;103573;-59
2022/08/02 11:14:01;;;;;;;8.00;7.17;;;;;;;28.27;36.65;94913.56;6112770;28;103944;-59
2022/08/02 11:17:13;;;;;;;12.40;7.60;;;;;;;28.45;36.54;94932.81;6113478;28;104744;-60
2022/08/02 11:20:18;;;;;;;10.87;7.80;;;;;;;28.53;36.75;94917.63;6113534;28;103630;-59
2022/08/02 11:23:37;;;;;;;8.30;6.60;;;;;;;28.75;36.37;94925.06;6102519;28;104900;-60
2022/08/02 11:26:47;;;;;;;9.57;7.10;;;;;;;28.76;36.11;94909.69;6114122;28;104999;-59
2022/08/02 11:29:51;;;;;;;7.60;6.93;;;;;;;28.92;36.42;94929.28;6112456;28;103710;-59
2022/08/02 11:32:55;;;;;;;8.70;6.53;;;;;;;28.90;36.03;94916.16;6108089;28;104232;-59
2022/08/02 11:36:02;;;;;;;10.90;7.50;;;;;;;29.04;35.98;94923.78;6108838;28;103766;-59
2022/08/02 11:39:10;;;;;;;12.00;7.67;;;;;;;29.09;36.33;94917.34;6112807;28;104188;-60
2022/08/02 11:42:14;;;;;;;10.90;9.80;;;;;;;29.15;36.56;94930.16;6113450;28;104974;-60
2022/08/02 11:45:24;;;;;;;15.67;11.40;;;;;;;29.17;36.29;94921.72;6101953;28;104522;-60
2022/08/02 11:48:33;;;;;;;18.43;13.43;;;;;;;29.10;36.42;94919.69;6088862;28;103718;-59
2022/08/02 11:51:37;;;;;;;17.10;13.13;;;;;;;29.06;36.33;94918.81;6088401;28;103710;-60
2022/08/02 11:54:49;;;;;;;14.63;13.10;;;;;;;29.00;36.36;94914.81;6089241;28;103926;-57
2022/08/02 11:57:58;;;;;;;25.50;16.63;;;;;;;28.93;37.30;94914.66;6079299;28;104522;-58
2022/08/02 12:01:05;;;;;;;18.50;15.40;;;;;;;28.89;36.90;94916.50;6088944;28;103840;-60
2022/08/02 12:04:09;;;;;;;41.90;25.27;;;;;;;28.72;37.34;94917.66;6088704;28;105294;-61
2022/08/02 12:07:12;;;;;;;30.50;22.00;;;;;;;28.50;37.46;94908.34;6078659;28;103794;-59
2022/08/02 12:10:19;;;;;;;20.00;9.23;;;;;;;28.11;36.73;94909.31;6088552;28;105343;-60
2022/08/02 12:13:22;;;;;;;12.07;9.17;;;;;;;27.96;37.03;94900.09;6088467;28;104898;-60
2022/08/02 12:19:53;;;;;;;10.07;4.63;;;;;;;27.85;36.40;94910.56;6077077;28;103498;-59
2022/08/02 12:22:56;;;;;;;13.90;5.40;;;;;;;27.90;36.81;94907.66;6088332;28;104751;-60
2022/08/02 12:26:05;;;;;;;8.13;4.70;;;;;;;28.03;36.94;94914.50;6088395;28;104172;-60
2022/08/02 12:29:09;;;;;;;5.57;5.07;;;;;;;28.15;35.67;94915.56;6084851;28;103807;-59
2022/08/02 12:32:24;;;;;;;4.87;4.50;;;;;;;28.17;36.39;94913.28;6081634;28;103860;-58
2022/08/02 12:35:30;;;;;;;6.50;5.90;;;;;;;28.27;36.07;94910.88;6087852;28;103742;-58
2022/08/02 12:38:33;;;;;;;9.47;5.40;;;;;;;28.38;35.85;94905.72;6088303;28;103691;-58
2022/08/02 12:41:38;;;;;;;8.47;6.33;;;;;;;28.46;35.75;94912.88;6077825;28;105030;-58
2022/08/02 12:44:58;;;;;;;9.20;4.93;;;;;;;28.57;36.41;94913.13;6087448;28;104777;-59
2022/08/02 12:48:01;;;;;;;11.40;4.93;;;;;;;28.70;36.32;94906.47;6087164;28;104839;-60
2022/08/02 12:51:19;;;;;;;6.90;4.50;;;;;;;28.73;36.50;94899.59;6086962;28;103878;-58
2022/08/02 12:54:23;;;;;;;5.07;4.10;;;;;;;28.72;36.51;94906.09;6077321;28;104943;-59
2022/08/02 12:57:51;;;;;;;3.70;3.40;;;;;;;28.76;35.95;94904.28;6092758;28;103225;-60
2022/08/02 13:00:56;;;;;;;7.57;3.40;;;;;;;28.81;35.91;94893.25;6101500;28;103760;-60
2022/08/02 13:04:00;;;;;;;5.87;3.47;;;;;;;28.72;36.29;94896.13;6101032;28;104133;-59
2022/08/02 13:07:14;;;;;;;2.50;2.30;;;;;;;28.83;36.17;94894.44;6108068;28;105092;-59
2022/08/02 13:10:17;;;;;;;3.03;2.57;;;;;;;28.84;35.68;94889.84;6111742;28;103976;-59
2022/08/02 13:13:22;;;;;;;6.50;2.50;;;;;;;28.78;35.98;94896.66;6105734;28;103858;-59
2022/08/02 13:16:25;;;;;;;2.97;2.70;;;;;;;28.63;36.10;94898.25;6076476;28;103770;-59
2022/08/02 13:19:33;;;;;;;4.90;2.30;;;;;;;28.41;35.20;94888.88;6084982;28;104979;-59
2022/08/02 13:22:37;;;;;;;3.50;2.00;;;;;;;28.09;35.42;94888.13;6104518;28;103698;-59
2022/08/02 13:25:54;;;;;;;2.97;2.17;;;;;;;28.04;35.85;94889.16;6108334;28;103880;-59
2022/08/02 13:28:59;;;;;;;3.87;3.00;;;;;;;28.02;35.81;94877.19;6102464;28;104394;-59
2022/08/02 13:32:02;;;;;;;6.73;6.07;;;;;;;28.18;36.54;94893.31;6114211;28;104910;-60
2022/08/02 13:35:06;;;;;;;7.40;6.63;;;;;;;28.17;36.05;94889.84;6110358;28;103918;-60
2022/08/02 13:38:19;;;;;;;5.20;4.80;;;;;;;28.21;36.16;94895.31;6102979;28;103817;-59
2022/08/02 13:41:26;;;;;;;7.60;4.77;;;;;;;28.21;36.18;94895.31;6110368;28;103774;-61
2022/08/02 13:44:31;;;;;;;2.73;2.20;;;;;;;28.45;35.95;94895.13;6112823;28;103923;-60
2022/08/02 13:47:34;;;;;;;11.87;3.13;;;;;;;28.57;36.21;94886.97;6107686;28;105123;-60
2022/08/02 13:50:57;;;;;;;4.40;3.10;;;;;;;28.45;36.60;94867.44;6102676;28;106569;-60
2022/08/02 13:54:00;;;;;;;7.50;3.73;;;;;;;28.73;36.75;94896.91;6113443;28;104021;-62
2022/08/02 13:57:03;;;;;;;7.10;3.40;;;;;;;28.84;36.73;94895.22;6113663;28;103943;-60
2022/08/02 14:00:10;;;;;;;11.93;3.70;;;;;;;28.90;37.14;94894.59;6108468;28;104726;-59
2022/08/02 14:03:13;;;;;;;5.00;2.50;;;;;;;28.93;37.27;94903.91;6108141;28;104006;-60
2022/08/02 14:06:16;;;;;;;7.17;2.50;;;;;;;28.94;37.54;94892.75;6112671;28;103914;-60
2022/08/02 14:09:19;;;;;;;7.27;2.60;;;;;;;28.99;38.13;94894.38;6113355;28;105310;-59
2022/08/02 14:12:22;;;;;;;10.67;4.73;;;;;;;29.03;38.42;94886.38;6102854;28;104472;-61
2022/08/02 14:15:27;;;;;;;14.63;5.30;;;;;;;28.98;38.84;94902.81;6110816;28;103497;-61
2022/08/02 14:18:32;;;;;;;14.17;4.03;;;;;;;28.89;39.06;94893.03;6113826;28;104692;-60
2022/08/02 14:21:35;;;;;;;6.03;3.80;;;;;;;28.76;38.16;94886.22;6111375;28;103520;-57
2022/08/02 14:24:49;;;;;;;11.97;3.43;;;;;;;28.73;39.44;94891.50;6102588;28;103666;-59
2022/08/02 14:27:52;;;;;;;6.87;3.10;;;;;;;28.59;38.61;94884.72;6111501;28;104990;-58
2022/08/02 14:30:56;;;;;;;10.50;4.10;;;;;;;28.66;39.17;94900.22;6113427;28;104504;-59